Aviation Digital Data Service (ADDS)

Output produced by METARs form (0922 UTC 01 April 2015)
found at http://aviationweather.gov/adds/metars/
 
KALB 010520Z 0106/0206 34005KT P6SM FEW200 
     FM011400 31010KT P6SM SCT250 
     FM012300 VRB03KT P6SM SCT120 BKN250